METAR Data
IDs: Format: Raw Decoded Include TAF

Data at: 2156 UTC 18 Apr 2021

KFAM 182056Z AUTO 00000KT 10SM BKN055 OVC070 10/07 A2997 RMK AO2 RAE14B30E43 SLP159 P0001 60016 T01000072 53007